sensor_id;sensor_type;location;lat;lon;timestamp;temperature;humidity
31967;DHT22;18496;52.042;6.812;2023-03-12T00:01:37;6.50;97.10
31967;DHT22;18496;52.042;6.812;2023-03-12T00:03:41;6.50;97.20
31967;DHT22;18496;52.042;6.812;2023-03-12T00:05:45;6.50;96.90
31967;DHT22;18496;52.042;6.812;2023-03-12T00:07:48;6.50;97.10
31967;DHT22;18496;52.042;6.812;2023-03-12T00:09:52;6.50;97.10
31967;DHT22;18496;52.042;6.812;2023-03-12T00:11:56;6.50;96.60
31967;DHT22;18496;52.042;6.812;2023-03-12T00:13:59;6.50;96.50
31967;DHT22;18496;52.042;6.812;2023-03-12T00:16:10;6.40;96.80
31967;DHT22;18496;52.042;6.812;2023-03-12T00:18:14;6.50;97.20
31967;DHT22;18496;52.042;6.812;2023-03-12T00:20:18;6.50;96.90
31967;DHT22;18496;52.042;6.812;2023-03-12T00:22:22;6.50;96.80
31967;DHT22;18496;52.042;6.812;2023-03-12T00:24:25;6.50;97.30
31967;DHT22;18496;52.042;6.812;2023-03-12T00:26:29;6.50;96.90
31967;DHT22;18496;52.042;6.812;2023-03-12T00:28:33;6.50;96.60
31967;DHT22;18496;52.042;6.812;2023-03-12T00:30:37;6.50;96.40
31967;DHT22;18496;52.042;6.812;2023-03-12T00:32:42;6.50;96.60
31967;DHT22;18496;52.042;6.812;2023-03-12T00:34:53;6.50;97.20
31967;DHT22;18496;52.042;6.812;2023-03-12T00:36:57;6.40;96.30
31967;DHT22;18496;52.042;6.812;2023-03-12T00:39:00;6.50;96.60
31967;DHT22;18496;52.042;6.812;2023-03-12T00:41:04;6.40;96.70
31967;DHT22;18496;52.042;6.812;2023-03-12T00:43:07;6.40;96.60
31967;DHT22;18496;52.042;6.812;2023-03-12T00:45:11;6.40;96.90
31967;DHT22;18496;52.042;6.812;2023-03-12T00:47:14;6.40;96.50
31967;DHT22;18496;52.042;6.812;2023-03-12T00:49:18;6.40;97.10
31967;DHT22;18496;52.042;6.812;2023-03-12T00:51:22;6.40;96.80
31967;DHT22;18496;52.042;6.812;2023-03-12T00:53:25;6.40;96.80
31967;DHT22;18496;52.042;6.812;2023-03-12T00:55:29;6.40;97.10
31967;DHT22;18496;52.042;6.812;2023-03-12T00:57:33;6.40;96.80
31967;DHT22;18496;52.042;6.812;2023-03-12T00:59:36;6.40;97.00
31967;DHT22;18496;52.042;6.812;2023-03-12T01:01:42;6.40;96.60
31967;DHT22;18496;52.042;6.812;2023-03-12T01:03:46;6.40;97.30
31967;DHT22;18496;52.042;6.812;2023-03-12T01:05:50;6.40;96.80
31967;DHT22;18496;52.042;6.812;2023-03-12T01:07:57;6.40;97.00
31967;DHT22;18496;52.042;6.812;2023-03-12T01:10:00;6.40;97.20
31967;DHT22;18496;52.042;6.812;2023-03-12T01:12:04;6.40;97.00
31967;DHT22;18496;52.042;6.812;2023-03-12T01:14:08;6.40;97.30
31967;DHT22;18496;52.042;6.812;2023-03-12T01:16:11;6.40;97.40
31967;DHT22;18496;52.042;6.812;2023-03-12T01:18:15;6.50;97.20
31967;DHT22;18496;52.042;6.812;2023-03-12T01:20:19;6.50;97.00
31967;DHT22;18496;52.042;6.812;2023-03-12T01:22:22;6.50;97.30
31967;DHT22;18496;52.042;6.812;2023-03-12T01:24:26;6.40;97.30
31967;DHT22;18496;52.042;6.812;2023-03-12T01:26:30;6.40;97.10
31967;DHT22;18496;52.042;6.812;2023-03-12T01:28:33;6.40;97.10
31967;DHT22;18496;52.042;6.812;2023-03-12T01:30:37;6.30;97.20
31967;DHT22;18496;52.042;6.812;2023-03-12T01:32:41;6.30;97.20
31967;DHT22;18496;52.042;6.812;2023-03-12T01:34:44;6.30;97.40
31967;DHT22;18496;52.042;6.812;2023-03-12T01:36:48;6.20;97.40
31967;DHT22;18496;52.042;6.812;2023-03-12T01:38:52;6.20;97.30
31967;DHT22;18496;52.042;6.812;2023-03-12T01:40:56;6.20;97.30
31967;DHT22;18496;52.042;6.812;2023-03-12T01:43:19;6.20;97.30
31967;DHT22;18496;52.042;6.812;2023-03-12T01:47:46;6.20;97.70
31967;DHT22;18496;52.042;6.812;2023-03-12T01:49:50;6.20;97.40
31967;DHT22;18496;52.042;6.812;2023-03-12T01:51:59;6.10;97.50
31967;DHT22;18496;52.042;6.812;2023-03-12T01:54:09;6.10;97.90
31967;DHT22;18496;52.042;6.812;2023-03-12T01:56:14;6.10;97.80
31967;DHT22;18496;52.042;6.812;2023-03-12T01:58:18;6.10;97.80
31967;DHT22;18496;52.042;6.812;2023-03-12T02:00:23;6.10;97.70
31967;DHT22;18496;52.042;6.812;2023-03-12T02:02:28;6.10;98.10
31967;DHT22;18496;52.042;6.812;2023-03-12T02:04:32;6.10;98.00
31967;DHT22;18496;52.042;6.812;2023-03-12T02:06:42;6.10;98.00
31967;DHT22;18496;52.042;6.812;2023-03-12T02:08:47;6.10;97.90
31967;DHT22;18496;52.042;6.812;2023-03-12T02:10:51;6.10;97.80
31967;DHT22;18496;52.042;6.812;2023-03-12T02:12:55;6.10;98.00
31967;DHT22;18496;52.042;6.812;2023-03-12T02:14:59;6.10;98.30
31967;DHT22;18496;52.042;6.812;2023-03-12T02:17:03;6.10;97.80
31967;DHT22;18496;52.042;6.812;2023-03-12T02:19:08;6.10;98.00
31967;DHT22;18496;52.042;6.812;2023-03-12T02:21:19;6.10;97.90
31967;DHT22;18496;52.042;6.812;2023-03-12T02:23:25;6.00;97.90
31967;DHT22;18496;52.042;6.812;2023-03-12T02:25:34;6.00;97.80
31967;DHT22;18496;52.042;6.812;2023-03-12T02:27:40;6.00;98.00
31967;DHT22;18496;52.042;6.812;2023-03-12T02:29:44;6.10;98.40
31967;DHT22;18496;52.042;6.812;2023-03-12T02:31:49;6.10;98.10
31967;DHT22;18496;52.042;6.812;2023-03-12T02:33:54;6.10;97.60
31967;DHT22;18496;52.042;6.812;2023-03-12T02:35:58;6.10;98.20
31967;DHT22;18496;52.042;6.812;2023-03-12T02:38:22;6.10;98.00
31967;DHT22;18496;52.042;6.812;2023-03-12T02:40:37;6.10;97.80
31967;DHT22;18496;52.042;6.812;2023-03-12T02:42:41;6.10;98.00
31967;DHT22;18496;52.042;6.812;2023-03-12T02:44:45;6.10;98.00
31967;DHT22;18496;52.042;6.812;2023-03-12T02:46:50;6.10;98.30
31967;DHT22;18496;52.042;6.812;2023-03-12T02:48:54;6.10;97.80
31967;DHT22;18496;52.042;6.812;2023-03-12T02:50:58;6.10;98.10
31967;DHT22;18496;52.042;6.812;2023-03-12T02:53:02;6.10;98.40
31967;DHT22;18496;52.042;6.812;2023-03-12T02:55:06;6.10;97.60
31967;DHT22;18496;52.042;6.812;2023-03-12T02:57:09;6.00;98.10
31967;DHT22;18496;52.042;6.812;2023-03-12T02:59:14;6.00;97.80
31967;DHT22;18496;52.042;6.812;2023-03-12T03:01:20;6.00;97.90
31967;DHT22;18496;52.042;6.812;2023-03-12T03:03:24;6.10;98.20
31967;DHT22;18496;52.042;6.812;2023-03-12T03:05:27;6.00;98.20
31967;DHT22;18496;52.042;6.812;2023-03-12T03:07:31;6.10;98.20
31967;DHT22;18496;52.042;6.812;2023-03-12T03:09:35;6.10;97.90
31967;DHT22;18496;52.042;6.812;2023-03-12T03:11:39;6.10;98.10
31967;DHT22;18496;52.042;6.812;2023-03-12T03:13:43;6.10;97.80
31967;DHT22;18496;52.042;6.812;2023-03-12T03:15:47;6.10;98.30
31967;DHT22;18496;52.042;6.812;2023-03-12T03:17:51;6.00;97.40
31967;DHT22;18496;52.042;6.812;2023-03-12T03:19:54;6.00;98.20
31967;DHT22;18496;52.042;6.812;2023-03-12T03:21:58;5.90;97.40
31967;DHT22;18496;52.042;6.812;2023-03-12T03:24:02;6.00;98.10
31967;DHT22;18496;52.042;6.812;2023-03-12T03:26:06;6.00;98.30
31967;DHT22;18496;52.042;6.812;2023-03-12T03:28:10;6.00;98.30
31967;DHT22;18496;52.042;6.812;2023-03-12T03:30:13;6.00;98.10
31967;DHT22;18496;52.042;6.812;2023-03-12T03:32:21;6.00;98.40
31967;DHT22;18496;52.042;6.812;2023-03-12T03:34:25;6.00;98.10
31967;DHT22;18496;52.042;6.812;2023-03-12T03:36:29;6.00;97.70
31967;DHT22;18496;52.042;6.812;2023-03-12T03:38:40;5.90;97.80
31967;DHT22;18496;52.042;6.812;2023-03-12T03:40:44;5.90;98.20
31967;DHT22;18496;52.042;6.812;2023-03-12T03:42:48;5.90;97.90
31967;DHT22;18496;52.042;6.812;2023-03-12T03:44:51;5.80;98.20
31967;DHT22;18496;52.042;6.812;2023-03-12T03:46:55;5.80;98.30
31967;DHT22;18496;52.042;6.812;2023-03-12T03:48:59;5.80;98.30
31967;DHT22;18496;52.042;6.812;2023-03-12T03:51:04;5.70;98.00
31967;DHT22;18496;52.042;6.812;2023-03-12T03:53:10;5.70;98.40
31967;DHT22;18496;52.042;6.812;2023-03-12T03:55:15;5.70;98.30
31967;DHT22;18496;52.042;6.812;2023-03-12T03:57:19;5.70;98.50
31967;DHT22;18496;52.042;6.812;2023-03-12T03:59:23;5.70;98.30
31967;DHT22;18496;52.042;6.812;2023-03-12T04:01:27;5.70;98.70
31967;DHT22;18496;52.042;6.812;2023-03-12T04:03:32;5.70;98.80
31967;DHT22;18496;52.042;6.812;2023-03-12T04:05:36;5.70;99.00
31967;DHT22;18496;52.042;6.812;2023-03-12T04:07:40;5.70;98.80
31967;DHT22;18496;52.042;6.812;2023-03-12T04:09:44;5.70;98.70
31967;DHT22;18496;52.042;6.812;2023-03-12T04:11:48;5.70;99.30
31967;DHT22;18496;52.042;6.812;2023-03-12T04:13:52;5.70;98.60
31967;DHT22;18496;52.042;6.812;2023-03-12T04:15:59;5.60;98.50
31967;DHT22;18496;52.042;6.812;2023-03-12T04:18:02;5.60;98.60
31967;DHT22;18496;52.042;6.812;2023-03-12T04:20:06;5.60;99.00
31967;DHT22;18496;52.042;6.812;2023-03-12T04:22:12;5.60;98.70
31967;DHT22;18496;52.042;6.812;2023-03-12T04:24:16;5.60;98.90
31967;DHT22;18496;52.042;6.812;2023-03-12T04:26:20;5.50;98.50
31967;DHT22;18496;52.042;6.812;2023-03-12T04:28:24;5.50;98.90
31967;DHT22;18496;52.042;6.812;2023-03-12T04:30:27;5.50;99.20
31967;DHT22;18496;52.042;6.812;2023-03-12T04:32:31;5.50;98.90
31967;DHT22;18496;52.042;6.812;2023-03-12T04:34:35;5.50;99.30
31967;DHT22;18496;52.042;6.812;2023-03-12T04:36:39;5.50;99.60
31967;DHT22;18496;52.042;6.812;2023-03-12T04:38:43;5.50;99.30
31967;DHT22;18496;52.042;6.812;2023-03-12T04:40:55;5.50;99.10
31967;DHT22;18496;52.042;6.812;2023-03-12T04:42:59;5.60;99.40
31967;DHT22;18496;52.042;6.812;2023-03-12T04:45:03;5.60;99.80
31967;DHT22;18496;52.042;6.812;2023-03-12T04:47:07;5.60;99.70
31967;DHT22;18496;52.042;6.812;2023-03-12T04:49:11;5.60;99.20
31967;DHT22;18496;52.042;6.812;2023-03-12T04:51:17;5.60;99.20
31967;DHT22;18496;52.042;6.812;2023-03-12T04:53:20;5.60;99.00
31967;DHT22;18496;52.042;6.812;2023-03-12T04:55:25;5.50;99.00
31967;DHT22;18496;52.042;6.812;2023-03-12T04:57:29;5.50;99.20
31967;DHT22;18496;52.042;6.812;2023-03-12T04:59:33;5.50;99.20
31967;DHT22;18496;52.042;6.812;2023-03-12T05:01:37;5.40;99.70
31967;DHT22;18496;52.042;6.812;2023-03-12T05:03:45;5.50;99.90
31967;DHT22;18496;52.042;6.812;2023-03-12T05:05:49;5.40;99.40
31967;DHT22;18496;52.042;6.812;2023-03-12T05:07:53;5.40;99.50
31967;DHT22;18496;52.042;6.812;2023-03-12T05:09:57;5.30;99.60
31967;DHT22;18496;52.042;6.812;2023-03-12T05:12:00;5.30;99.90
31967;DHT22;18496;52.042;6.812;2023-03-12T05:14:04;5.30;99.70
31967;DHT22;18496;52.042;6.812;2023-03-12T05:16:08;5.30;99.90
31967;DHT22;18496;52.042;6.812;2023-03-12T05:18:12;5.30;99.90
31967;DHT22;18496;52.042;6.812;2023-03-12T05:20:16;5.20;99.70
31967;DHT22;18496;52.042;6.812;2023-03-12T05:22:24;5.20;99.80
31967;DHT22;18496;52.042;6.812;2023-03-12T05:24:27;5.20;99.90
31967;DHT22;18496;52.042;6.812;2023-03-12T05:26:31;5.10;99.90
31967;DHT22;18496;52.042;6.812;2023-03-12T05:28:46;5.10;99.90
31967;DHT22;18496;52.042;6.812;2023-03-12T05:30:50;5.10;99.90
31967;DHT22;18496;52.042;6.812;2023-03-12T05:32:54;5.10;99.90
31967;DHT22;18496;52.042;6.812;2023-03-12T05:34:58;5.10;99.90
31967;DHT22;18496;52.042;6.812;2023-03-12T05:37:02;5.10;99.90
31967;DHT22;18496;52.042;6.812;2023-03-12T05:39:07;5.00;99.90
31967;DHT22;18496;52.042;6.812;2023-03-12T05:41:16;5.00;99.90
31967;DHT22;18496;52.042;6.812;2023-03-12T05:43:20;5.00;99.90
31967;DHT22;18496;52.042;6.812;2023-03-12T05:45:24;5.10;99.90
31967;DHT22;18496;52.042;6.812;2023-03-12T05:47:30;5.10;99.90
31967;DHT22;18496;52.042;6.812;2023-03-12T05:49:34;5.10;99.90
31967;DHT22;18496;52.042;6.812;2023-03-12T05:51:37;5.00;99.90
31967;DHT22;18496;52.042;6.812;2023-03-12T05:53:43;5.00;99.90
31967;DHT22;18496;52.042;6.812;2023-03-12T05:55:46;5.10;99.90
31967;DHT22;18496;52.042;6.812;2023-03-12T05:57:50;5.10;99.90
31967;DHT22;18496;52.042;6.812;2023-03-12T05:59:54;5.10;99.90
31967;DHT22;18496;52.042;6.812;2023-03-12T06:01:58;5.10;99.90
31967;DHT22;18496;52.042;6.812;2023-03-12T06:04:02;5.10;99.90
31967;DHT22;18496;52.042;6.812;2023-03-12T06:06:06;5.00;99.90
31967;DHT22;18496;52.042;6.812;2023-03-12T06:08:10;5.00;99.90
31967;DHT22;18496;52.042;6.812;2023-03-12T06:10:14;5.00;99.90
31967;DHT22;18496;52.042;6.812;2023-03-12T06:12:18;5.00;99.90
31967;DHT22;18496;52.042;6.812;2023-03-12T06:14:22;5.00;99.90
31967;DHT22;18496;52.042;6.812;2023-03-12T06:16:26;5.00;99.90
31967;DHT22;18496;52.042;6.812;2023-03-12T06:18:31;4.90;99.90
31967;DHT22;18496;52.042;6.812;2023-03-12T06:20:35;4.90;99.90
31967;DHT22;18496;52.042;6.812;2023-03-12T06:22:38;4.90;99.90
31967;DHT22;18496;52.042;6.812;2023-03-12T06:24:42;4.80;99.90
31967;DHT22;18496;52.042;6.812;2023-03-12T06:26:51;4.80;99.90
31967;DHT22;18496;52.042;6.812;2023-03-12T06:28:55;4.80;99.90
31967;DHT22;18496;52.042;6.812;2023-03-12T06:30:58;4.80;99.90
31967;DHT22;18496;52.042;6.812;2023-03-12T06:33:02;4.80;99.90
31967;DHT22;18496;52.042;6.812;2023-03-12T06:35:07;4.80;99.90
31967;DHT22;18496;52.042;6.812;2023-03-12T06:37:10;4.80;99.90
31967;DHT22;18496;52.042;6.812;2023-03-12T06:39:14;4.80;99.90
31967;DHT22;18496;52.042;6.812;2023-03-12T06:41:18;4.80;99.90
31967;DHT22;18496;52.042;6.812;2023-03-12T06:43:22;4.80;99.90
31967;DHT22;18496;52.042;6.812;2023-03-12T06:45:26;4.80;99.90
31967;DHT22;18496;52.042;6.812;2023-03-12T06:47:29;4.90;99.90
31967;DHT22;18496;52.042;6.812;2023-03-12T06:49:33;4.90;99.90
31967;DHT22;18496;52.042;6.812;2023-03-12T06:51:38;4.90;99.90
31967;DHT22;18496;52.042;6.812;2023-03-12T06:53:41;4.90;99.90
31967;DHT22;18496;52.042;6.812;2023-03-12T06:55:45;4.90;99.90
31967;DHT22;18496;52.042;6.812;2023-03-12T06:57:49;4.90;99.90
31967;DHT22;18496;52.042;6.812;2023-03-12T06:59:52;4.90;99.90
31967;DHT22;18496;52.042;6.812;2023-03-12T07:01:56;5.00;99.90
31967;DHT22;18496;52.042;6.812;2023-03-12T07:04:00;5.00;99.90
31967;DHT22;18496;52.042;6.812;2023-03-12T07:06:03;5.00;99.90
31967;DHT22;18496;52.042;6.812;2023-03-12T07:08:07;5.00;99.90
31967;DHT22;18496;52.042;6.812;2023-03-12T07:10:11;5.10;99.90
31967;DHT22;18496;52.042;6.812;2023-03-12T07:12:14;5.10;99.90
31967;DHT22;18496;52.042;6.812;2023-03-12T07:14:18;5.10;99.90
31967;DHT22;18496;52.042;6.812;2023-03-12T07:16:23;5.10;99.90
31967;DHT22;18496;52.042;6.812;2023-03-12T07:18:27;5.10;99.90
31967;DHT22;18496;52.042;6.812;2023-03-12T07:20:30;5.10;99.90
31967;DHT22;18496;52.042;6.812;2023-03-12T07:22:34;5.10;99.90
31967;DHT22;18496;52.042;6.812;2023-03-12T07:24:38;5.10;99.90
31967;DHT22;18496;52.042;6.812;2023-03-12T07:26:41;5.10;99.90
31967;DHT22;18496;52.042;6.812;2023-03-12T07:28:46;5.10;99.90
31967;DHT22;18496;52.042;6.812;2023-03-12T07:30:49;5.10;99.90
31967;DHT22;18496;52.042;6.812;2023-03-12T07:32:53;5.10;99.90
31967;DHT22;18496;52.042;6.812;2023-03-12T07:34:56;5.10;99.90
31967;DHT22;18496;52.042;6.812;2023-03-12T07:37:00;5.00;99.90
31967;DHT22;18496;52.042;6.812;2023-03-12T07:39:03;5.00;99.90
31967;DHT22;18496;52.042;6.812;2023-03-12T07:41:07;5.00;99.90
31967;DHT22;18496;52.042;6.812;2023-03-12T07:43:11;5.00;99.90
31967;DHT22;18496;52.042;6.812;2023-03-12T07:45:17;4.90;99.90
31967;DHT22;18496;52.042;6.812;2023-03-12T07:47:21;4.90;99.90
31967;DHT22;18496;52.042;6.812;2023-03-12T07:49:25;5.00;99.90
31967;DHT22;18496;52.042;6.812;2023-03-12T07:51:29;4.90;99.90
31967;DHT22;18496;52.042;6.812;2023-03-12T07:53:33;5.00;99.90
31967;DHT22;18496;52.042;6.812;2023-03-12T07:55:36;4.90;99.90
31967;DHT22;18496;52.042;6.812;2023-03-12T07:57:40;4.90;99.90
31967;DHT22;18496;52.042;6.812;2023-03-12T07:59:44;4.90;99.90
31967;DHT22;18496;52.042;6.812;2023-03-12T08:01:48;4.90;99.90
31967;DHT22;18496;52.042;6.812;2023-03-12T08:03:52;4.90;99.90
31967;DHT22;18496;52.042;6.812;2023-03-12T08:05:59;4.90;99.90
31967;DHT22;18496;52.042;6.812;2023-03-12T08:08:03;4.90;99.90
31967;DHT22;18496;52.042;6.812;2023-03-12T08:10:08;5.00;99.90
31967;DHT22;18496;52.042;6.812;2023-03-12T08:12:11;5.00;99.90
31967;DHT22;18496;52.042;6.812;2023-03-12T08:14:15;5.00;99.90
31967;DHT22;18496;52.042;6.812;2023-03-12T08:16:18;5.00;99.90
31967;DHT22;18496;52.042;6.812;2023-03-12T08:18:22;5.00;99.90
31967;DHT22;18496;52.042;6.812;2023-03-12T08:20:27;5.10;99.90
31967;DHT22;18496;52.042;6.812;2023-03-12T08:22:30;5.10;99.90
31967;DHT22;18496;52.042;6.812;2023-03-12T08:24:34;5.10;99.90
31967;DHT22;18496;52.042;6.812;2023-03-12T08:26:37;5.10;99.90
31967;DHT22;18496;52.042;6.812;2023-03-12T08:28:41;5.10;99.90
31967;DHT22;18496;52.042;6.812;2023-03-12T08:30:49;5.00;99.90
31967;DHT22;18496;52.042;6.812;2023-03-12T08:32:52;5.00;99.90
31967;DHT22;18496;52.042;6.812;2023-03-12T08:34:56;5.00;99.90
31967;DHT22;18496;52.042;6.812;2023-03-12T08:37:00;5.00;99.90
31967;DHT22;18496;52.042;6.812;2023-03-12T08:39:03;5.00;99.90
31967;DHT22;18496;52.042;6.812;2023-03-12T08:41:07;5.00;99.90
31967;DHT22;18496;52.042;6.812;2023-03-12T08:43:10;5.00;99.90
31967;DHT22;18496;52.042;6.812;2023-03-12T08:45:14;5.00;99.90
31967;DHT22;18496;52.042;6.812;2023-03-12T08:47:18;5.00;99.90
31967;DHT22;18496;52.042;6.812;2023-03-12T08:49:22;5.00;99.90
31967;DHT22;18496;52.042;6.812;2023-03-12T08:51:25;5.00;99.90
31967;DHT22;18496;52.042;6.812;2023-03-12T08:53:29;5.10;99.90
31967;DHT22;18496;52.042;6.812;2023-03-12T08:55:33;5.20;99.90
31967;DHT22;18496;52.042;6.812;2023-03-12T08:57:37;5.20;99.90
31967;DHT22;18496;52.042;6.812;2023-03-12T08:59:40;5.20;99.90
31967;DHT22;18496;52.042;6.812;2023-03-12T09:01:44;5.20;99.90
31967;DHT22;18496;52.042;6.812;2023-03-12T09:03:47;5.20;99.90
31967;DHT22;18496;52.042;6.812;2023-03-12T09:06:06;5.20;99.90
31967;DHT22;18496;52.042;6.812;2023-03-12T09:08:12;5.20;99.90
31967;DHT22;18496;52.042;6.812;2023-03-12T09:10:15;5.20;99.90
31967;DHT22;18496;52.042;6.812;2023-03-12T09:12:19;5.30;99.90
31967;DHT22;18496;52.042;6.812;2023-03-12T09:14:22;5.30;99.90
31967;DHT22;18496;52.042;6.812;2023-03-12T09:16:26;5.30;99.90
31967;DHT22;18496;52.042;6.812;2023-03-12T09:18:30;5.30;99.90
31967;DHT22;18496;52.042;6.812;2023-03-12T09:20:34;5.40;99.90
31967;DHT22;18496;52.042;6.812;2023-03-12T09:22:39;5.40;99.90
31967;DHT22;18496;52.042;6.812;2023-03-12T09:24:43;5.40;99.90
31967;DHT22;18496;52.042;6.812;2023-03-12T09:26:47;5.40;99.90
31967;DHT22;18496;52.042;6.812;2023-03-12T09:28:50;5.40;99.90
31967;DHT22;18496;52.042;6.812;2023-03-12T09:30:54;5.40;99.90
31967;DHT22;18496;52.042;6.812;2023-03-12T09:32:57;5.40;99.90
31967;DHT22;18496;52.042;6.812;2023-03-12T09:35:01;5.40;99.90
31967;DHT22;18496;52.042;6.812;2023-03-12T09:37:05;5.40;99.90
31967;DHT22;18496;52.042;6.812;2023-03-12T09:39:08;5.50;99.90
31967;DHT22;18496;52.042;6.812;2023-03-12T09:41:19;5.50;99.90
31967;DHT22;18496;52.042;6.812;2023-03-12T09:43:35;5.50;99.90
31967;DHT22;18496;52.042;6.812;2023-03-12T09:45:43;5.50;99.90
31967;DHT22;18496;52.042;6.812;2023-03-12T09:48:22;5.50;99.90
31967;DHT22;18496;52.042;6.812;2023-03-12T09:52:26;5.50;99.90
31967;DHT22;18496;52.042;6.812;2023-03-12T09:56:36;5.60;99.90
31967;DHT22;18496;52.042;6.812;2023-03-12T09:58:40;5.60;99.90
31967;DHT22;18496;52.042;6.812;2023-03-12T10:00:46;5.60;99.90
31967;DHT22;18496;52.042;6.812;2023-03-12T10:05:23;5.60;99.90
31967;DHT22;18496;52.042;6.812;2023-03-12T10:13:52;5.60;99.90
31967;DHT22;18496;52.042;6.812;2023-03-12T10:16:15;5.60;99.90
31967;DHT22;18496;52.042;6.812;2023-03-12T10:18:25;5.60;99.90
31967;DHT22;18496;52.042;6.812;2023-03-12T10:27:06;5.70;99.90
31967;DHT22;18496;52.042;6.812;2023-03-12T10:29:14;5.80;99.90
31967;DHT22;18496;52.042;6.812;2023-03-12T10:33:22;5.80;99.90
31967;DHT22;18496;52.042;6.812;2023-03-12T10:35:28;5.90;99.90
31967;DHT22;18496;52.042;6.812;2023-03-12T10:37:47;5.90;99.90
31967;DHT22;18496;52.042;6.812;2023-03-12T10:39:52;5.90;99.90
31967;DHT22;18496;52.042;6.812;2023-03-12T10:41:58;6.00;99.90
31967;DHT22;18496;52.042;6.812;2023-03-12T10:44:05;6.00;99.90
31967;DHT22;18496;52.042;6.812;2023-03-12T10:46:34;6.00;99.90
31967;DHT22;18496;52.042;6.812;2023-03-12T10:48:33;6.10;99.90
31967;DHT22;18496;52.042;6.812;2023-03-12T10:50:38;6.10;99.90
31967;DHT22;18496;52.042;6.812;2023-03-12T10:52:42;6.10;99.90
31967;DHT22;18496;52.042;6.812;2023-03-12T10:54:47;6.20;99.90
31967;DHT22;18496;52.042;6.812;2023-03-12T10:56:51;6.20;99.90
31967;DHT22;18496;52.042;6.812;2023-03-12T10:58:55;6.20;99.90
31967;DHT22;18496;52.042;6.812;2023-03-12T11:01:02;6.20;99.90
31967;DHT22;18496;52.042;6.812;2023-03-12T11:03:19;6.30;99.90
31967;DHT22;18496;52.042;6.812;2023-03-12T11:05:34;6.30;99.90
31967;DHT22;18496;52.042;6.812;2023-03-12T11:07:37;6.40;99.90
31967;DHT22;18496;52.042;6.812;2023-03-12T11:09:45;6.40;99.90
31967;DHT22;18496;52.042;6.812;2023-03-12T11:12:22;6.40;99.90
31967;DHT22;18496;52.042;6.812;2023-03-12T11:14:28;6.50;99.90
31967;DHT22;18496;52.042;6.812;2023-03-12T11:16:32;6.60;99.90
31967;DHT22;18496;52.042;6.812;2023-03-12T11:18:36;6.60;99.90
31967;DHT22;18496;52.042;6.812;2023-03-12T11:20:43;6.60;99.90
31967;DHT22;18496;52.042;6.812;2023-03-12T11:22:47;6.60;99.90
31967;DHT22;18496;52.042;6.812;2023-03-12T11:24:58;6.60;99.90
31967;DHT22;18496;52.042;6.812;2023-03-12T11:27:20;6.70;99.90
31967;DHT22;18496;52.042;6.812;2023-03-12T11:29:28;6.80;99.90
31967;DHT22;18496;52.042;6.812;2023-03-12T11:31:35;6.80;99.90
31967;DHT22;18496;52.042;6.812;2023-03-12T11:33:40;6.80;99.90
31967;DHT22;18496;52.042;6.812;2023-03-12T11:35:58;6.90;99.90
31967;DHT22;18496;52.042;6.812;2023-03-12T11:38:20;6.90;99.90
31967;DHT22;18496;52.042;6.812;2023-03-12T11:42:40;7.10;99.90
31967;DHT22;18496;52.042;6.812;2023-03-12T11:49:10;7.20;99.90
31967;DHT22;18496;52.042;6.812;2023-03-12T12:12:38;7.80;99.90
31967;DHT22;18496;52.042;6.812;2023-03-12T12:14:47;7.80;99.90
31967;DHT22;18496;52.042;6.812;2023-03-12T12:19:19;7.90;99.90
31967;DHT22;18496;52.042;6.812;2023-03-12T12:23:54;8.00;99.90
31967;DHT22;18496;52.042;6.812;2023-03-12T12:26:06;8.10;99.90
31967;DHT22;18496;52.042;6.812;2023-03-12T12:28:17;8.10;99.90
31967;DHT22;18496;52.042;6.812;2023-03-12T12:31:06;8.10;99.90
31967;DHT22;18496;52.042;6.812;2023-03-12T12:34:59;8.20;99.90
31967;DHT22;18496;52.042;6.812;2023-03-12T12:39:30;8.30;99.90
31967;DHT22;18496;52.042;6.812;2023-03-12T12:41:36;8.30;99.90
31967;DHT22;18496;52.042;6.812;2023-03-12T12:43:41;8.40;99.90
31967;DHT22;18496;52.042;6.812;2023-03-12T12:45:46;8.40;99.90
31967;DHT22;18496;52.042;6.812;2023-03-12T12:47:55;8.40;99.90
31967;DHT22;18496;52.042;6.812;2023-03-12T12:49:59;8.50;99.90
31967;DHT22;18496;52.042;6.812;2023-03-12T12:52:04;8.50;99.90
31967;DHT22;18496;52.042;6.812;2023-03-12T12:54:32;8.60;99.90
31967;DHT22;18496;52.042;6.812;2023-03-12T12:59:07;8.60;99.90
31967;DHT22;18496;52.042;6.812;2023-03-12T13:01:12;8.70;99.90
31967;DHT22;18496;52.042;6.812;2023-03-12T13:03:20;8.80;99.90
31967;DHT22;18496;52.042;6.812;2023-03-12T13:05:38;8.80;99.90
31967;DHT22;18496;52.042;6.812;2023-03-12T13:07:42;8.90;99.90
31967;DHT22;18496;52.042;6.812;2023-03-12T13:09:47;8.90;99.90
31967;DHT22;18496;52.042;6.812;2023-03-12T13:11:52;8.90;99.90
31967;DHT22;18496;52.042;6.812;2023-03-12T13:16:17;9.00;99.90
31967;DHT22;18496;52.042;6.812;2023-03-12T13:18:25;9.10;99.90
31967;DHT22;18496;52.042;6.812;2023-03-12T13:20:36;9.10;99.90
31967;DHT22;18496;52.042;6.812;2023-03-12T13:27:12;9.20;99.90
31967;DHT22;18496;52.042;6.812;2023-03-12T13:33:43;9.40;99.90
31967;DHT22;18496;52.042;6.812;2023-03-12T13:36:01;9.40;99.90
31967;DHT22;18496;52.042;6.812;2023-03-12T13:38:09;9.40;99.90
31967;DHT22;18496;52.042;6.812;2023-03-12T13:42:34;9.50;99.90
31967;DHT22;18496;52.042;6.812;2023-03-12T13:44:39;9.50;99.90
31967;DHT22;18496;52.042;6.812;2023-03-12T13:46:43;9.60;99.90
31967;DHT22;18496;52.042;6.812;2023-03-12T13:48:48;9.60;99.90
31967;DHT22;18496;52.042;6.812;2023-03-12T13:50:53;9.70;99.90
31967;DHT22;18496;52.042;6.812;2023-03-12T13:53:02;9.70;99.90
31967;DHT22;18496;52.042;6.812;2023-03-12T13:57:28;9.70;99.90
31967;DHT22;18496;52.042;6.812;2023-03-12T13:59:33;9.80;99.90
31967;DHT22;18496;52.042;6.812;2023-03-12T14:01:40;9.80;99.90
31967;DHT22;18496;52.042;6.812;2023-03-12T14:03:46;9.80;99.90
31967;DHT22;18496;52.042;6.812;2023-03-12T14:05:59;9.90;99.90
31967;DHT22;18496;52.042;6.812;2023-03-12T14:14:50;10.00;99.90
31967;DHT22;18496;52.042;6.812;2023-03-12T14:16:58;10.10;99.90
31967;DHT22;18496;52.042;6.812;2023-03-12T14:19:02;10.10;99.90
31967;DHT22;18496;52.042;6.812;2023-03-12T14:21:08;10.10;99.90
31967;DHT22;18496;52.042;6.812;2023-03-12T14:23:12;10.20;99.90
31967;DHT22;18496;52.042;6.812;2023-03-12T14:25:33;10.20;99.90
31967;DHT22;18496;52.042;6.812;2023-03-12T14:27:38;10.20;99.90
31967;DHT22;18496;52.042;6.812;2023-03-12T14:29:47;10.20;99.90
31967;DHT22;18496;52.042;6.812;2023-03-12T14:31:57;10.30;99.90
31967;DHT22;18496;52.042;6.812;2023-03-12T14:34:11;10.30;99.90
31967;DHT22;18496;52.042;6.812;2023-03-12T14:36:19;10.30;99.90
31967;DHT22;18496;52.042;6.812;2023-03-12T14:38:24;10.40;99.90
31967;DHT22;18496;52.042;6.812;2023-03-12T14:40:36;10.40;99.90
31967;DHT22;18496;52.042;6.812;2023-03-12T14:42:40;10.50;99.90
31967;DHT22;18496;52.042;6.812;2023-03-12T14:44:51;10.50;99.90
31967;DHT22;18496;52.042;6.812;2023-03-12T14:47:00;10.50;99.90
31967;DHT22;18496;52.042;6.812;2023-03-12T14:49:04;10.50;99.90
31967;DHT22;18496;52.042;6.812;2023-03-12T14:51:15;10.60;99.90
31967;DHT22;18496;52.042;6.812;2023-03-12T14:53:22;10.60;99.90